Mossel Bay Cape Saint Blaize, South Africa

1:04 AM SAST on December 03, 2016 (GMT +0200)
Mossel Bay Extension 7 | | Change Station

Elev 0 ft 34.18 °S, 22.12 °E | Updated 2 minutes ago

Clear
Clear
65.3 °F
Feels Like 65.3 °F
N
0.6
Wind Variable Wind from East
Gusts 2.5 mph

Today
High -- | Low -- °F
--% Chance of Precip.
Yesterday
High -- | Low -- °F
Precip. -- in
Pressure 29.92 in
Visibility -9999.0 miles
Clouds
Dew Point 60 °F
Humidity 84%
Rainfall 0.00 in
Snow Depth Not available.
5:12 AM 7:30 PM
Waxing Crescent, 11% visible
METAR FAGG 022200Z AUTO 32006KT CAVOK 16/15 Q1013
Pressure 29.92 in
Visibility -9999.0 miles
Clouds
Dew Point 60 °F
Humidity 84%
Rainfall 0.00 in
Snow Depth Not available.
5:12 AM 7:30 PM
Waxing Crescent, 11% visible
METAR FAGG 022200Z AUTO 32006KT CAVOK 16/15 Q1013

10-Day Weather Forecast

No radar image for this location.
×

Almanac

Astronomy

Dec. 03, 2016 Rise Set
Actual Time
Civil Twilight
Nautical Twilight
Astronomical Twilight
Moon
Length of Visible Light
Length of Day
Tomorrow will be .
, % of the Moon is Illuminated

Today's Extremes

Country Highs Country Lows

Community

WunderPhotos

Upload Photos

1,955,375 photos uploaded!

WunderBlog® & News

Nearby

Air Quality

  Air Quality AQ Index Pollutant
Not available.

Snow Depth

Station Depth Elevation

Earthquake Activity

City Distance Mag. Time & Date
Minimum magnitude displayed is 2.5.

Coastal Water Temperatures

Place Temperature

Stations

Nearby Weather Stations

Station Location Temp. Windchill Dew Point Humidity Wind Precip. Elev Updated Type